sensor_id;sensor_type;location;lat;lon;timestamp;P1;durP1;ratioP1;P2;durP2;ratioP2
3259;SDS011;68938;48.150;14.004;2023-04-25T00:01:21;3.80;;;3.50;;
3259;SDS011;68938;48.150;14.004;2023-04-25T00:03:48;3.73;;;3.53;;
3259;SDS011;68938;48.150;14.004;2023-04-25T00:06:16;3.30;;;3.10;;
3259;SDS011;68938;48.150;14.004;2023-04-25T00:08:43;3.70;;;3.40;;
3259;SDS011;68938;48.150;14.004;2023-04-25T00:11:10;3.37;;;3.20;;
3259;SDS011;68938;48.150;14.004;2023-04-25T00:13:37;3.40;;;3.20;;
3259;SDS011;68938;48.150;14.004;2023-04-25T00:16:04;3.10;;;2.83;;
3259;SDS011;68938;48.150;14.004;2023-04-25T00:18:31;3.50;;;3.20;;
3259;SDS011;68938;48.150;14.004;2023-04-25T00:20:58;4.63;;;4.40;;
3259;SDS011;68938;48.150;14.004;2023-04-25T00:23:25;3.23;;;3.03;;
3259;SDS011;68938;48.150;14.004;2023-04-25T00:25:52;3.90;;;3.70;;
3259;SDS011;68938;48.150;14.004;2023-04-25T00:28:19;3.70;;;3.50;;
3259;SDS011;68938;48.150;14.004;2023-04-25T00:30:46;4.57;;;3.50;;
3259;SDS011;68938;48.150;14.004;2023-04-25T00:33:13;3.30;;;3.20;;
3259;SDS011;68938;48.150;14.004;2023-04-25T00:35:39;2.83;;;2.73;;
3259;SDS011;68938;48.150;14.004;2023-04-25T00:38:06;3.57;;;3.37;;
3259;SDS011;68938;48.150;14.004;2023-04-25T00:40:33;4.07;;;3.60;;
3259;SDS011;68938;48.150;14.004;2023-04-25T00:43:01;4.90;;;4.70;;
3259;SDS011;68938;48.150;14.004;2023-04-25T00:45:28;3.90;;;3.60;;
3259;SDS011;68938;48.150;14.004;2023-04-25T00:47:56;3.33;;;3.23;;
3259;SDS011;68938;48.150;14.004;2023-04-25T00:50:23;4.80;;;3.20;;
3259;SDS011;68938;48.150;14.004;2023-04-25T00:52:51;4.00;;;3.80;;
3259;SDS011;68938;48.150;14.004;2023-04-25T00:55:18;3.80;;;3.60;;
3259;SDS011;68938;48.150;14.004;2023-04-25T00:57:46;4.27;;;4.07;;
3259;SDS011;68938;48.150;14.004;2023-04-25T01:00:13;4.33;;;4.03;;
3259;SDS011;68938;48.150;14.004;2023-04-25T01:02:41;3.27;;;2.97;;
3259;SDS011;68938;48.150;14.004;2023-04-25T01:05:09;4.23;;;3.63;;
3259;SDS011;68938;48.150;14.004;2023-04-25T01:07:36;3.73;;;3.43;;
3259;SDS011;68938;48.150;14.004;2023-04-25T01:10:04;4.83;;;4.63;;
3259;SDS011;68938;48.150;14.004;2023-04-25T01:12:33;6.00;;;3.83;;
3259;SDS011;68938;48.150;14.004;2023-04-25T01:15:01;4.60;;;4.30;;
3259;SDS011;68938;48.150;14.004;2023-04-25T01:17:28;4.20;;;3.90;;
3259;SDS011;68938;48.150;14.004;2023-04-25T01:19:55;4.60;;;4.17;;
3259;SDS011;68938;48.150;14.004;2023-04-25T01:22:22;4.80;;;4.50;;
3259;SDS011;68938;48.150;14.004;2023-04-25T01:24:49;3.67;;;3.47;;
3259;SDS011;68938;48.150;14.004;2023-04-25T01:27:17;4.03;;;3.83;;
3259;SDS011;68938;48.150;14.004;2023-04-25T01:29:44;4.50;;;4.10;;
3259;SDS011;68938;48.150;14.004;2023-04-25T01:32:12;3.43;;;3.23;;
3259;SDS011;68938;48.150;14.004;2023-04-25T01:34:41;4.53;;;4.13;;
3259;SDS011;68938;48.150;14.004;2023-04-25T01:37:08;3.80;;;3.60;;
3259;SDS011;68938;48.150;14.004;2023-04-25T01:39:35;4.40;;;4.10;;
3259;SDS011;68938;48.150;14.004;2023-04-25T01:42:02;4.47;;;4.17;;
3259;SDS011;68938;48.150;14.004;2023-04-25T01:44:29;4.33;;;3.93;;
3259;SDS011;68938;48.150;14.004;2023-04-25T01:46:56;3.77;;;3.57;;
3259;SDS011;68938;48.150;14.004;2023-04-25T01:49:23;5.00;;;3.70;;
3259;SDS011;68938;48.150;14.004;2023-04-25T01:51:50;5.90;;;4.73;;
3259;SDS011;68938;48.150;14.004;2023-04-25T01:54:17;4.80;;;4.40;;
3259;SDS011;68938;48.150;14.004;2023-04-25T01:56:49;4.00;;;3.63;;
3259;SDS011;68938;48.150;14.004;2023-04-25T01:59:18;4.50;;;4.20;;
3259;SDS011;68938;48.150;14.004;2023-04-25T02:01:45;4.30;;;4.00;;
3259;SDS011;68938;48.150;14.004;2023-04-25T02:04:12;7.63;;;3.97;;
3259;SDS011;68938;48.150;14.004;2023-04-25T02:06:39;4.13;;;3.73;;
3259;SDS011;68938;48.150;14.004;2023-04-25T02:09:06;7.20;;;4.60;;
3259;SDS011;68938;48.150;14.004;2023-04-25T02:11:33;4.50;;;4.10;;
3259;SDS011;68938;48.150;14.004;2023-04-25T02:14:00;4.50;;;4.10;;
3259;SDS011;68938;48.150;14.004;2023-04-25T02:16:27;3.63;;;3.43;;
3259;SDS011;68938;48.150;14.004;2023-04-25T02:18:54;4.50;;;4.10;;
3259;SDS011;68938;48.150;14.004;2023-04-25T02:21:21;4.50;;;4.20;;
3259;SDS011;68938;48.150;14.004;2023-04-25T02:23:47;4.13;;;3.93;;
3259;SDS011;68938;48.150;14.004;2023-04-25T02:26:15;4.13;;;3.93;;
3259;SDS011;68938;48.150;14.004;2023-04-25T02:28:42;4.60;;;4.33;;
3259;SDS011;68938;48.150;14.004;2023-04-25T02:31:09;4.87;;;4.33;;
3259;SDS011;68938;48.150;14.004;2023-04-25T02:33:35;4.07;;;3.77;;
3259;SDS011;68938;48.150;14.004;2023-04-25T02:36:02;7.50;;;3.70;;
3259;SDS011;68938;48.150;14.004;2023-04-25T02:38:30;4.53;;;4.23;;
3259;SDS011;68938;48.150;14.004;2023-04-25T02:40:57;4.20;;;3.90;;
3259;SDS011;68938;48.150;14.004;2023-04-25T02:43:23;4.60;;;3.50;;
3259;SDS011;68938;48.150;14.004;2023-04-25T02:45:50;4.03;;;3.80;;
3259;SDS011;68938;48.150;14.004;2023-04-25T02:48:17;3.80;;;3.50;;
3259;SDS011;68938;48.150;14.004;2023-04-25T02:50:44;3.93;;;3.73;;
3259;SDS011;68938;48.150;14.004;2023-04-25T02:53:11;4.33;;;3.93;;
3259;SDS011;68938;48.150;14.004;2023-04-25T02:55:38;4.37;;;4.07;;
3259;SDS011;68938;48.150;14.004;2023-04-25T02:58:05;5.10;;;4.33;;
3259;SDS011;68938;48.150;14.004;2023-04-25T03:00:32;3.70;;;3.47;;
3259;SDS011;68938;48.150;14.004;2023-04-25T03:02:59;4.70;;;4.40;;
3259;SDS011;68938;48.150;14.004;2023-04-25T03:05:25;4.30;;;3.90;;
3259;SDS011;68938;48.150;14.004;2023-04-25T03:07:52;4.63;;;4.00;;
3259;SDS011;68938;48.150;14.004;2023-04-25T03:10:19;4.80;;;4.40;;
3259;SDS011;68938;48.150;14.004;2023-04-25T03:12:46;4.30;;;3.90;;
3259;SDS011;68938;48.150;14.004;2023-04-25T03:15:13;4.70;;;4.40;;
3259;SDS011;68938;48.150;14.004;2023-04-25T03:17:40;4.13;;;3.83;;
3259;SDS011;68938;48.150;14.004;2023-04-25T03:20:07;4.93;;;4.53;;
3259;SDS011;68938;48.150;14.004;2023-04-25T03:22:35;4.53;;;4.13;;
3259;SDS011;68938;48.150;14.004;2023-04-25T03:25:02;4.07;;;3.87;;
3259;SDS011;68938;48.150;14.004;2023-04-25T03:27:29;5.00;;;3.87;;
3259;SDS011;68938;48.150;14.004;2023-04-25T03:29:56;3.90;;;3.70;;
3259;SDS011;68938;48.150;14.004;2023-04-25T03:32:23;4.37;;;4.07;;
3259;SDS011;68938;48.150;14.004;2023-04-25T03:34:50;5.90;;;5.50;;
3259;SDS011;68938;48.150;14.004;2023-04-25T03:37:16;5.07;;;4.67;;
3259;SDS011;68938;48.150;14.004;2023-04-25T03:39:43;5.33;;;5.00;;
3259;SDS011;68938;48.150;14.004;2023-04-25T03:42:10;6.10;;;5.10;;
3259;SDS011;68938;48.150;14.004;2023-04-25T03:44:37;6.47;;;5.87;;
3259;SDS011;68938;48.150;14.004;2023-04-25T03:47:04;5.60;;;5.10;;
3259;SDS011;68938;48.150;14.004;2023-04-25T03:49:32;7.33;;;4.97;;
3259;SDS011;68938;48.150;14.004;2023-04-25T03:52:00;5.63;;;5.20;;
3259;SDS011;68938;48.150;14.004;2023-04-25T03:54:27;5.23;;;4.83;;
3259;SDS011;68938;48.150;14.004;2023-04-25T03:56:54;8.03;;;5.47;;
3259;SDS011;68938;48.150;14.004;2023-04-25T03:59:21;6.07;;;5.57;;
3259;SDS011;68938;48.150;14.004;2023-04-25T04:01:48;5.63;;;4.60;;
3259;SDS011;68938;48.150;14.004;2023-04-25T04:04:15;5.87;;;5.47;;
3259;SDS011;68938;48.150;14.004;2023-04-25T04:06:42;6.27;;;5.67;;
3259;SDS011;68938;48.150;14.004;2023-04-25T04:09:09;5.63;;;5.23;;
3259;SDS011;68938;48.150;14.004;2023-04-25T04:11:36;6.73;;;6.13;;
3259;SDS011;68938;48.150;14.004;2023-04-25T04:14:05;6.67;;;6.03;;
3259;SDS011;68938;48.150;14.004;2023-04-25T04:16:33;6.27;;;5.77;;
3259;SDS011;68938;48.150;14.004;2023-04-25T04:19:00;6.90;;;6.40;;
3259;SDS011;68938;48.150;14.004;2023-04-25T04:21:27;8.63;;;7.83;;
3259;SDS011;68938;48.150;14.004;2023-04-25T04:23:54;9.53;;;6.53;;
3259;SDS011;68938;48.150;14.004;2023-04-25T04:26:21;7.60;;;7.00;;
3259;SDS011;68938;48.150;14.004;2023-04-25T04:28:48;7.93;;;7.23;;
3259;SDS011;68938;48.150;14.004;2023-04-25T04:31:18;7.60;;;6.77;;
3259;SDS011;68938;48.150;14.004;2023-04-25T04:33:45;7.40;;;6.70;;
3259;SDS011;68938;48.150;14.004;2023-04-25T04:36:12;7.70;;;7.10;;
3259;SDS011;68938;48.150;14.004;2023-04-25T04:38:39;8.63;;;7.83;;
3259;SDS011;68938;48.150;14.004;2023-04-25T04:41:07;7.43;;;6.83;;
3259;SDS011;68938;48.150;14.004;2023-04-25T04:43:34;9.10;;;8.07;;
3259;SDS011;68938;48.150;14.004;2023-04-25T04:46:01;7.77;;;7.10;;
3259;SDS011;68938;48.150;14.004;2023-04-25T04:48:30;9.83;;;6.77;;
3259;SDS011;68938;48.150;14.004;2023-04-25T04:50:58;8.27;;;7.50;;
3259;SDS011;68938;48.150;14.004;2023-04-25T04:53:25;7.10;;;6.43;;
3259;SDS011;68938;48.150;14.004;2023-04-25T04:55:53;8.20;;;7.50;;
3259;SDS011;68938;48.150;14.004;2023-04-25T04:58:20;7.60;;;7.00;;
3259;SDS011;68938;48.150;14.004;2023-04-25T05:00:48;7.53;;;6.80;;
3259;SDS011;68938;48.150;14.004;2023-04-25T05:03:15;7.40;;;6.80;;
3259;SDS011;68938;48.150;14.004;2023-04-25T05:05:43;6.40;;;5.80;;
3259;SDS011;68938;48.150;14.004;2023-04-25T05:08:09;7.67;;;7.07;;
3259;SDS011;68938;48.150;14.004;2023-04-25T05:10:36;8.10;;;6.37;;
3259;SDS011;68938;48.150;14.004;2023-04-25T05:13:03;6.60;;;6.00;;
3259;SDS011;68938;48.150;14.004;2023-04-25T05:15:30;7.00;;;6.30;;
3259;SDS011;68938;48.150;14.004;2023-04-25T05:17:57;6.70;;;6.10;;
3259;SDS011;68938;48.150;14.004;2023-04-25T05:20:24;9.67;;;6.10;;
3259;SDS011;68938;48.150;14.004;2023-04-25T05:22:51;6.87;;;6.30;;
3259;SDS011;68938;48.150;14.004;2023-04-25T05:25:18;8.20;;;7.40;;
3259;SDS011;68938;48.150;14.004;2023-04-25T05:27:45;7.63;;;6.83;;
3259;SDS011;68938;48.150;14.004;2023-04-25T05:30:11;7.83;;;7.07;;
3259;SDS011;68938;48.150;14.004;2023-04-25T05:32:38;7.80;;;6.47;;
3259;SDS011;68938;48.150;14.004;2023-04-25T05:35:05;7.90;;;7.30;;
3259;SDS011;68938;48.150;14.004;2023-04-25T05:37:33;8.10;;;6.80;;
3259;SDS011;68938;48.150;14.004;2023-04-25T05:40:00;7.40;;;6.70;;
3259;SDS011;68938;48.150;14.004;2023-04-25T05:42:27;8.87;;;7.40;;
3259;SDS011;68938;48.150;14.004;2023-04-25T05:44:53;8.63;;;6.70;;
3259;SDS011;68938;48.150;14.004;2023-04-25T05:47:20;7.13;;;6.43;;
3259;SDS011;68938;48.150;14.004;2023-04-25T05:49:47;7.77;;;6.73;;
3259;SDS011;68938;48.150;14.004;2023-04-25T05:52:14;9.23;;;6.70;;
3259;SDS011;68938;48.150;14.004;2023-04-25T05:54:41;6.80;;;6.30;;
3259;SDS011;68938;48.150;14.004;2023-04-25T05:57:08;6.73;;;6.10;;
3259;SDS011;68938;48.150;14.004;2023-04-25T05:59:35;6.47;;;5.87;;
3259;SDS011;68938;48.150;14.004;2023-04-25T06:02:01;8.83;;;6.20;;
3259;SDS011;68938;48.150;14.004;2023-04-25T06:04:28;6.63;;;5.30;;
3259;SDS011;68938;48.150;14.004;2023-04-25T06:06:55;6.83;;;6.17;;
3259;SDS011;68938;48.150;14.004;2023-04-25T06:09:22;6.00;;;5.40;;
3259;SDS011;68938;48.150;14.004;2023-04-25T06:11:49;6.40;;;5.80;;
3259;SDS011;68938;48.150;14.004;2023-04-25T06:14:16;7.60;;;5.93;;
3259;SDS011;68938;48.150;14.004;2023-04-25T06:16:43;7.53;;;5.17;;
3259;SDS011;68938;48.150;14.004;2023-04-25T06:19:10;5.63;;;5.17;;
3259;SDS011;68938;48.150;14.004;2023-04-25T06:21:37;5.20;;;4.83;;
3259;SDS011;68938;48.150;14.004;2023-04-25T06:24:04;5.67;;;5.17;;
3259;SDS011;68938;48.150;14.004;2023-04-25T06:26:31;6.37;;;5.80;;
3259;SDS011;68938;48.150;14.004;2023-04-25T06:28:58;5.50;;;5.00;;
3259;SDS011;68938;48.150;14.004;2023-04-25T06:31:25;5.23;;;4.83;;
3259;SDS011;68938;48.150;14.004;2023-04-25T06:33:52;5.17;;;4.77;;
3259;SDS011;68938;48.150;14.004;2023-04-25T06:36:19;4.43;;;4.13;;
3259;SDS011;68938;48.150;14.004;2023-04-25T06:38:46;4.93;;;4.53;;
3259;SDS011;68938;48.150;14.004;2023-04-25T06:41:13;4.57;;;4.27;;
3259;SDS011;68938;48.150;14.004;2023-04-25T06:43:40;5.27;;;4.77;;
3259;SDS011;68938;48.150;14.004;2023-04-25T06:46:07;4.40;;;4.00;;
3259;SDS011;68938;48.150;14.004;2023-04-25T06:48:34;3.60;;;3.40;;
3259;SDS011;68938;48.150;14.004;2023-04-25T06:51:00;5.03;;;4.13;;
3259;SDS011;68938;48.150;14.004;2023-04-25T06:53:27;3.40;;;3.10;;
3259;SDS011;68938;48.150;14.004;2023-04-25T06:55:54;4.20;;;2.87;;
3259;SDS011;68938;48.150;14.004;2023-04-25T06:58:21;3.50;;;3.10;;
3259;SDS011;68938;48.150;14.004;2023-04-25T07:00:48;3.70;;;2.90;;
3259;SDS011;68938;48.150;14.004;2023-04-25T07:03:15;4.57;;;4.20;;
3259;SDS011;68938;48.150;14.004;2023-04-25T07:05:43;4.40;;;4.00;;
3259;SDS011;68938;48.150;14.004;2023-04-25T07:08:09;7.63;;;5.20;;
3259;SDS011;68938;48.150;14.004;2023-04-25T07:10:37;3.40;;;3.10;;
3259;SDS011;68938;48.150;14.004;2023-04-25T07:13:04;5.67;;;4.57;;
3259;SDS011;68938;48.150;14.004;2023-04-25T07:15:31;4.10;;;3.80;;
3259;SDS011;68938;48.150;14.004;2023-04-25T07:17:57;4.67;;;4.23;;
3259;SDS011;68938;48.150;14.004;2023-04-25T07:20:24;4.10;;;3.90;;
3259;SDS011;68938;48.150;14.004;2023-04-25T07:22:52;5.60;;;4.77;;
3259;SDS011;68938;48.150;14.004;2023-04-25T07:25:19;4.50;;;4.20;;
3259;SDS011;68938;48.150;14.004;2023-04-25T07:27:46;5.00;;;4.33;;
3259;SDS011;68938;48.150;14.004;2023-04-25T07:30:13;4.60;;;4.33;;
3259;SDS011;68938;48.150;14.004;2023-04-25T07:32:41;5.83;;;5.00;;
3259;SDS011;68938;48.150;14.004;2023-04-25T07:35:08;7.27;;;5.10;;
3259;SDS011;68938;48.150;14.004;2023-04-25T07:37:35;3.80;;;3.60;;
3259;SDS011;68938;48.150;14.004;2023-04-25T07:40:02;5.70;;;3.60;;
3259;SDS011;68938;48.150;14.004;2023-04-25T07:42:30;4.07;;;3.40;;
3259;SDS011;68938;48.150;14.004;2023-04-25T07:44:57;4.37;;;3.77;;
3259;SDS011;68938;48.150;14.004;2023-04-25T07:47:24;5.10;;;4.60;;
3259;SDS011;68938;48.150;14.004;2023-04-25T07:49:52;4.80;;;3.80;;
3259;SDS011;68938;48.150;14.004;2023-04-25T07:52:19;4.47;;;4.10;;
3259;SDS011;68938;48.150;14.004;2023-04-25T07:54:46;3.47;;;3.17;;
3259;SDS011;68938;48.150;14.004;2023-04-25T07:57:13;3.43;;;3.00;;
3259;SDS011;68938;48.150;14.004;2023-04-25T07:59:40;2.83;;;2.73;;
3259;SDS011;68938;48.150;14.004;2023-04-25T08:02:07;4.30;;;4.00;;
3259;SDS011;68938;48.150;14.004;2023-04-25T08:04:34;3.20;;;2.90;;
3259;SDS011;68938;48.150;14.004;2023-04-25T08:07:02;4.33;;;2.97;;
3259;SDS011;68938;48.150;14.004;2023-04-25T08:09:29;4.40;;;4.00;;
3259;SDS011;68938;48.150;14.004;2023-04-25T08:11:55;3.10;;;2.90;;
3259;SDS011;68938;48.150;14.004;2023-04-25T08:14:22;4.30;;;3.53;;
3259;SDS011;68938;48.150;14.004;2023-04-25T08:16:49;3.50;;;3.20;;
3259;SDS011;68938;48.150;14.004;2023-04-25T08:19:16;3.33;;;2.60;;
3259;SDS011;68938;48.150;14.004;2023-04-25T08:21:43;2.70;;;2.50;;
3259;SDS011;68938;48.150;14.004;2023-04-25T08:24:10;2.80;;;2.70;;
3259;SDS011;68938;48.150;14.004;2023-04-25T08:26:37;4.33;;;3.83;;
3259;SDS011;68938;48.150;14.004;2023-04-25T08:29:03;2.63;;;2.53;;
3259;SDS011;68938;48.150;14.004;2023-04-25T08:31:30;3.50;;;3.30;;
3259;SDS011;68938;48.150;14.004;2023-04-25T08:33:57;7.43;;;4.07;;
3259;SDS011;68938;48.150;14.004;2023-04-25T08:36:24;3.17;;;2.90;;
3259;SDS011;68938;48.150;14.004;2023-04-25T08:39:05;4.30;;;3.50;;
3259;SDS011;68938;48.150;14.004;2023-04-25T08:41:32;2.77;;;2.53;;
3259;SDS011;68938;48.150;14.004;2023-04-25T08:43:59;4.07;;;3.30;;
3259;SDS011;68938;48.150;14.004;2023-04-25T08:46:29;2.57;;;2.37;;
3259;SDS011;68938;48.150;14.004;2023-04-25T08:49:00;3.03;;;2.77;;
3259;SDS011;68938;48.150;14.004;2023-04-25T08:51:30;5.47;;;2.83;;
3259;SDS011;68938;48.150;14.004;2023-04-25T08:54:08;4.80;;;3.17;;
3259;SDS011;68938;48.150;14.004;2023-04-25T08:56:41;5.10;;;3.30;;
3259;SDS011;68938;48.150;14.004;2023-04-25T08:59:12;2.63;;;2.53;;
3259;SDS011;68938;48.150;14.004;2023-04-25T09:01:39;3.53;;;3.23;;
3259;SDS011;68938;48.150;14.004;2023-04-25T09:04:06;4.53;;;3.27;;
3259;SDS011;68938;48.150;14.004;2023-04-25T09:06:34;3.03;;;2.83;;
3259;SDS011;68938;48.150;14.004;2023-04-25T09:09:02;2.90;;;2.70;;
3259;SDS011;68938;48.150;14.004;2023-04-25T09:11:35;2.93;;;2.73;;
3259;SDS011;68938;48.150;14.004;2023-04-25T09:19:25;2.80;;;2.60;;
3259;SDS011;68938;48.150;14.004;2023-04-25T09:22:06;3.10;;;2.73;;
3259;SDS011;68938;48.150;14.004;2023-04-25T09:27:09;3.47;;;3.07;;
3259;SDS011;68938;48.150;14.004;2023-04-25T09:29:39;3.37;;;3.07;;
3259;SDS011;68938;48.150;14.004;2023-04-25T09:32:15;3.27;;;2.97;;
3259;SDS011;68938;48.150;14.004;2023-04-25T09:34:45;2.60;;;2.40;;
3259;SDS011;68938;48.150;14.004;2023-04-25T09:37:25;4.53;;;2.87;;
3259;SDS011;68938;48.150;14.004;2023-04-25T09:39:55;2.77;;;2.37;;
3259;SDS011;68938;48.150;14.004;2023-04-25T09:42:25;2.03;;;1.93;;
3259;SDS011;68938;48.150;14.004;2023-04-25T09:44:54;2.40;;;2.30;;
3259;SDS011;68938;48.150;14.004;2023-04-25T09:47:23;2.30;;;2.17;;
3259;SDS011;68938;48.150;14.004;2023-04-25T09:49:53;2.23;;;1.90;;
3259;SDS011;68938;48.150;14.004;2023-04-25T09:52:22;3.87;;;2.10;;
3259;SDS011;68938;48.150;14.004;2023-04-25T09:54:51;2.50;;;2.30;;
3259;SDS011;68938;48.150;14.004;2023-04-25T09:57:19;2.07;;;1.97;;
3259;SDS011;68938;48.150;14.004;2023-04-25T09:59:52;2.30;;;2.10;;
3259;SDS011;68938;48.150;14.004;2023-04-25T10:02:22;2.00;;;1.90;;
3259;SDS011;68938;48.150;14.004;2023-04-25T10:04:52;1.87;;;1.77;;
3259;SDS011;68938;48.150;14.004;2023-04-25T10:07:22;1.43;;;1.40;;
3259;SDS011;68938;48.150;14.004;2023-04-25T10:09:54;2.30;;;1.47;;
3259;SDS011;68938;48.150;14.004;2023-04-25T10:12:26;1.90;;;1.80;;
3259;SDS011;68938;48.150;14.004;2023-04-25T10:14:54;2.43;;;1.47;;
3259;SDS011;68938;48.150;14.004;2023-04-25T10:17:21;1.63;;;1.53;;
3259;SDS011;68938;48.150;14.004;2023-04-25T10:19:50;1.73;;;1.63;;
3259;SDS011;68938;48.150;14.004;2023-04-25T10:22:20;2.37;;;1.70;;
3259;SDS011;68938;48.150;14.004;2023-04-25T10:24:57;1.90;;;1.80;;
3259;SDS011;68938;48.150;14.004;2023-04-25T10:27:27;1.57;;;1.57;;
3259;SDS011;68938;48.150;14.004;2023-04-25T10:30:01;1.87;;;1.87;;
3259;SDS011;68938;48.150;14.004;2023-04-25T10:32:36;1.97;;;1.87;;
3259;SDS011;68938;48.150;14.004;2023-04-25T10:35:37;2.40;;;2.30;;
3259;SDS011;68938;48.150;14.004;2023-04-25T10:38:03;1.73;;;1.63;;
3259;SDS011;68938;48.150;14.004;2023-04-25T10:40:35;3.10;;;2.73;;
3259;SDS011;68938;48.150;14.004;2023-04-25T10:48:52;1.97;;;1.87;;
3259;SDS011;68938;48.150;14.004;2023-04-25T10:54:18;2.20;;;2.10;;
3259;SDS011;68938;48.150;14.004;2023-04-25T10:56:45;4.17;;;3.77;;
3259;SDS011;68938;48.150;14.004;2023-04-25T10:59:13;5.30;;;3.77;;
3259;SDS011;68938;48.150;14.004;2023-04-25T11:01:43;4.53;;;2.93;;
3259;SDS011;68938;48.150;14.004;2023-04-25T11:09:55;2.47;;;2.37;;
3259;SDS011;68938;48.150;14.004;2023-04-25T11:12:22;2.20;;;2.10;;
3259;SDS011;68938;48.150;14.004;2023-04-25T11:14:57;3.43;;;3.10;;
3259;SDS011;68938;48.150;14.004;2023-04-25T11:17:29;4.60;;;4.20;;
3259;SDS011;68938;48.150;14.004;2023-04-25T11:19:57;3.57;;;3.20;;
3259;SDS011;68938;48.150;14.004;2023-04-25T11:22:25;2.90;;;2.70;;
3259;SDS011;68938;48.150;14.004;2023-04-25T11:24:54;3.70;;;3.40;;
3259;SDS011;68938;48.150;14.004;2023-04-25T11:27:21;4.93;;;3.53;;
3259;SDS011;68938;48.150;14.004;2023-04-25T11:29:47;3.77;;;3.47;;
3259;SDS011;68938;48.150;14.004;2023-04-25T11:32:15;3.73;;;2.90;;
3259;SDS011;68938;48.150;14.004;2023-04-25T11:34:47;3.27;;;2.97;;
3259;SDS011;68938;48.150;14.004;2023-04-25T11:37:14;5.10;;;3.13;;
3259;SDS011;68938;48.150;14.004;2023-04-25T11:39:45;2.73;;;2.57;;
3259;SDS011;68938;48.150;14.004;2023-04-25T11:42:12;2.93;;;2.83;;
3259;SDS011;68938;48.150;14.004;2023-04-25T11:44:39;3.60;;;3.40;;
3259;SDS011;68938;48.150;14.004;2023-04-25T11:47:07;4.23;;;3.50;;
3259;SDS011;68938;48.150;14.004;2023-04-25T11:49:34;3.63;;;3.43;;
3259;SDS011;68938;48.150;14.004;2023-04-25T11:52:02;2.70;;;2.50;;
3259;SDS011;68938;48.150;14.004;2023-04-25T11:54:29;4.83;;;2.77;;
3259;SDS011;68938;48.150;14.004;2023-04-25T11:56:56;3.43;;;3.10;;
3259;SDS011;68938;48.150;14.004;2023-04-25T11:59:23;2.57;;;2.47;;
3259;SDS011;68938;48.150;14.004;2023-04-25T12:01:51;2.53;;;2.43;;
3259;SDS011;68938;48.150;14.004;2023-04-25T12:04:19;2.20;;;2.10;;
3259;SDS011;68938;48.150;14.004;2023-04-25T12:06:53;2.00;;;1.90;;
3259;SDS011;68938;48.150;14.004;2023-04-25T12:09:31;2.40;;;2.27;;
3259;SDS011;68938;48.150;14.004;2023-04-25T12:12:00;2.10;;;2.00;;
3259;SDS011;68938;48.150;14.004;2023-04-25T12:14:28;2.53;;;2.43;;
3259;SDS011;68938;48.150;14.004;2023-04-25T12:17:00;2.10;;;2.00;;
3259;SDS011;68938;48.150;14.004;2023-04-25T12:19:33;2.50;;;2.30;;
3259;SDS011;68938;48.150;14.004;2023-04-25T12:22:02;4.10;;;2.83;;
3259;SDS011;68938;48.150;14.004;2023-04-25T12:24:36;2.60;;;2.50;;
3259;SDS011;68938;48.150;14.004;2023-04-25T12:27:05;3.30;;;2.30;;
3259;SDS011;68938;48.150;14.004;2023-04-25T12:29:34;2.60;;;2.40;;
3259;SDS011;68938;48.150;14.004;2023-04-25T12:32:15;2.13;;;2.03;;
3259;SDS011;68938;48.150;14.004;2023-04-25T12:34:43;3.60;;;2.47;;
3259;SDS011;68938;48.150;14.004;2023-04-25T12:37:10;1.80;;;1.70;;
3259;SDS011;68938;48.150;14.004;2023-04-25T12:39:37;1.10;;;1.10;;
3259;SDS011;68938;48.150;14.004;2023-04-25T12:42:04;1.03;;;1.03;;
3259;SDS011;68938;48.150;14.004;2023-04-25T12:44:34;1.10;;;1.10;;
3259;SDS011;68938;48.150;14.004;2023-04-25T12:47:01;1.00;;;1.00;;
3259;SDS011;68938;48.150;14.004;2023-04-25T12:49:29;1.33;;;1.23;;
3259;SDS011;68938;48.150;14.004;2023-04-25T12:51:57;1.47;;;1.20;;
3259;SDS011;68938;48.150;14.004;2023-04-25T12:54:24;2.50;;;1.73;;
3259;SDS011;68938;48.150;14.004;2023-04-25T12:56:51;1.47;;;1.23;;
3259;SDS011;68938;48.150;14.004;2023-04-25T12:59:18;2.57;;;2.37;;
3259;SDS011;68938;48.150;14.004;2023-04-25T13:01:45;1.77;;;1.70;;
3259;SDS011;68938;48.150;14.004;2023-04-25T13:04:12;1.80;;;1.70;;
3259;SDS011;68938;48.150;14.004;2023-04-25T13:06:39;3.90;;;2.30;;
3259;SDS011;68938;48.150;14.004;2023-04-25T13:09:06;2.50;;;2.40;;
3259;SDS011;68938;48.150;14.004;2023-04-25T13:11:33;2.43;;;2.33;;
3259;SDS011;68938;48.150;14.004;2023-04-25T13:14:00;2.73;;;2.60;;
3259;SDS011;68938;48.150;14.004;2023-04-25T13:16:27;3.17;;;3.07;;
3259;SDS011;68938;48.150;14.004;2023-04-25T13:18:54;2.23;;;2.13;;
3259;SDS011;68938;48.150;14.004;2023-04-25T13:21:21;3.07;;;2.87;;
3259;SDS011;68938;48.150;14.004;2023-04-25T13:23:48;2.90;;;2.70;;
3259;SDS011;68938;48.150;14.004;2023-04-25T13:26:16;2.40;;;2.30;;
3259;SDS011;68938;48.150;14.004;2023-04-25T13:28:43;3.90;;;2.93;;
3259;SDS011;68938;48.150;14.004;2023-04-25T13:31:10;3.03;;;2.83;;
3259;SDS011;68938;48.150;14.004;2023-04-25T13:33:37;3.30;;;3.00;;
3259;SDS011;68938;48.150;14.004;2023-04-25T13:36:04;3.00;;;2.80;;
3259;SDS011;68938;48.150;14.004;2023-04-25T13:38:31;2.57;;;2.37;;
3259;SDS011;68938;48.150;14.004;2023-04-25T13:40:58;2.53;;;2.43;;
3259;SDS011;68938;48.150;14.004;2023-04-25T13:43:25;2.40;;;2.20;;
3259;SDS011;68938;48.150;14.004;2023-04-25T13:45:51;3.27;;;2.70;;
3259;SDS011;68938;48.150;14.004;2023-04-25T13:48:18;2.57;;;2.47;;
3259;SDS011;68938;48.150;14.004;2023-04-25T13:50:45;2.20;;;2.10;;
3259;SDS011;68938;48.150;14.004;2023-04-25T13:53:12;2.37;;;2.17;;
3259;SDS011;68938;48.150;14.004;2023-04-25T13:55:39;2.50;;;2.30;;
3259;SDS011;68938;48.150;14.004;2023-04-25T13:58:06;2.77;;;2.60;;
3259;SDS011;68938;48.150;14.004;2023-04-25T14:00:37;2.77;;;2.60;;
3259;SDS011;68938;48.150;14.004;2023-04-25T14:03:06;3.53;;;3.33;;
3259;SDS011;68938;48.150;14.004;2023-04-25T14:05:35;6.00;;;2.60;;
3259;SDS011;68938;48.150;14.004;2023-04-25T14:08:03;3.43;;;2.73;;
3259;SDS011;68938;48.150;14.004;2023-04-25T14:10:34;3.50;;;3.00;;
3259;SDS011;68938;48.150;14.004;2023-04-25T14:13:02;2.33;;;2.23;;
3259;SDS011;68938;48.150;14.004;2023-04-25T14:15:31;2.97;;;2.77;;
3259;SDS011;68938;48.150;14.004;2023-04-25T14:17:59;2.53;;;2.43;;
3259;SDS011;68938;48.150;14.004;2023-04-25T14:20:27;2.40;;;2.30;;
3259;SDS011;68938;48.150;14.004;2023-04-25T14:22:56;2.70;;;2.50;;
3259;SDS011;68938;48.150;14.004;2023-04-25T14:25:23;3.00;;;2.90;;
3259;SDS011;68938;48.150;14.004;2023-04-25T14:27:50;2.80;;;2.60;;
3259;SDS011;68938;48.150;14.004;2023-04-25T14:30:18;2.43;;;2.33;;
3259;SDS011;68938;48.150;14.004;2023-04-25T14:32:47;3.80;;;2.63;;
3259;SDS011;68938;48.150;14.004;2023-04-25T14:35:17;2.20;;;2.10;;
3259;SDS011;68938;48.150;14.004;2023-04-25T14:37:44;3.07;;;2.90;;
3259;SDS011;68938;48.150;14.004;2023-04-25T14:40:12;2.67;;;2.53;;
3259;SDS011;68938;48.150;14.004;2023-04-25T14:42:40;2.93;;;2.83;;
3259;SDS011;68938;48.150;14.004;2023-04-25T14:45:07;3.00;;;2.80;;
3259;SDS011;68938;48.150;14.004;2023-04-25T14:47:37;2.70;;;2.50;;
3259;SDS011;68938;48.150;14.004;2023-04-25T14:50:05;2.70;;;2.60;;
3259;SDS011;68938;48.150;14.004;2023-04-25T14:52:33;2.60;;;2.33;;
3259;SDS011;68938;48.150;14.004;2023-04-25T14:55:00;4.63;;;2.50;;
3259;SDS011;68938;48.150;14.004;2023-04-25T14:57:28;2.30;;;2.03;;
3259;SDS011;68938;48.150;14.004;2023-04-25T14:59:55;3.43;;;2.40;;
3259;SDS011;68938;48.150;14.004;2023-04-25T15:02:23;2.07;;;1.97;;
3259;SDS011;68938;48.150;14.004;2023-04-25T15:04:53;1.60;;;1.50;;
3259;SDS011;68938;48.150;14.004;2023-04-25T15:07:21;1.63;;;1.53;;
3259;SDS011;68938;48.150;14.004;2023-04-25T15:09:48;1.50;;;1.50;;
3259;SDS011;68938;48.150;14.004;2023-04-25T15:12:14;1.57;;;1.47;;
3259;SDS011;68938;48.150;14.004;2023-04-25T15:14:41;1.60;;;1.50;;